Time;durP1;ratioP1;P1;durP2;ratioP2;P2;SDS_P1;SDS_P2;PMS_P1;PMS_P2;Temp;Humidity;BMP_temperature;BMP_pressure;BME280_temperature;BME280_humidity;BME280_pressure;Samples;Min_cycle;Max_cycle;Signal;HPM_P1;HPM_P2
2022/04/04 00:01:15;;;;;;;;;;;3.90;76.70;;;;;;5060381;28;20387;-87
2022/04/04 00:03:41;;;;;;;;;;;3.80;77.50;;;;;;5049447;28;19926;-87
2022/04/04 00:06:07;;;;;;;;;;;3.70;77.60;;;;;;5059728;28;19989;-86
2022/04/04 00:08:33;;;;;;;;;;;3.80;77.60;;;;;;5052212;28;19913;-87
2022/04/04 00:10:59;;;;;;;;;;;3.70;77.40;;;;;;5027470;28;20277;-86
2022/04/04 00:13:25;;;;;;;;;;;3.70;77.30;;;;;;5022367;28;19967;-85
2022/04/04 00:15:51;;;;;;;;;;;3.70;77.40;;;;;;5031027;28;20359;-85
2022/04/04 00:18:16;;;;;;;;;;;3.60;77.50;;;;;;5031578;28;20008;-85
2022/04/04 00:20:42;;;;;;;;;;;3.50;78.10;;;;;;5044124;28;20276;-86
2022/04/04 00:23:12;;;;;;;;;;;3.60;77.80;;;;;;5047945;28;20440;-87
2022/04/04 00:25:38;;;;;;;;;;;3.60;77.40;;;;;;5029429;28;19913;-85
2022/04/04 00:28:03;;;;;;;;;;;3.50;77.80;;;;;;5036375;28;19920;-86
2022/04/04 00:30:29;;;;;;;;;;;3.40;78.00;;;;;;5048358;28;20464;-86
2022/04/04 00:32:54;;;;;;;;;;;3.50;78.40;;;;;;5035227;28;19913;-86
2022/04/04 00:35:20;;;;;;;;;;;3.50;78.10;;;;;;5036427;28;20387;-86
2022/04/04 00:37:45;;;;;;;;;;;3.40;78.20;;;;;;5059311;28;20325;-86
2022/04/04 00:40:11;;;;;;;;;;;3.50;78.60;;;;;;5042885;28;19914;-85
2022/04/04 00:42:38;;;;;;;;;;;3.60;78.00;;;;;;5023121;28;19913;-86
2022/04/04 00:45:04;;;;;;;;;;;3.60;77.50;;;;;;5041651;28;19916;-85
2022/04/04 00:47:29;;;;;;;;;;;3.60;77.90;;;;;;5048642;28;19917;-85
2022/04/04 00:49:54;;;;;;;;;;;3.60;77.60;;;;;;5051747;28;19956;-86
2022/04/04 00:52:20;;;;;;;;;;;3.50;78.00;;;;;;5070850;28;19905;-86
2022/04/04 00:54:47;;;;;;;;;;;3.50;78.00;;;;;;5041965;28;19924;-85
2022/04/04 00:57:13;;;;;;;;;;;3.50;78.50;;;;;;5029755;28;19974;-85
2022/04/04 00:59:39;;;;;;;;;;;3.60;77.70;;;;;;5048878;28;20015;-85
2022/04/04 01:02:04;;;;;;;;;;;3.50;77.80;;;;;;5047519;28;19914;-85
2022/04/04 01:04:30;;;;;;;;;;;3.60;77.70;;;;;;5049332;22;19932;-75
2022/04/04 01:06:58;;;;;;;;;;;3.60;77.30;;;;;;5021823;28;20378;-75
2022/04/04 01:09:23;;;;;;;;;;;3.70;77.10;;;;;;5027621;28;19952;-75
2022/04/04 01:12:08;;;;;;;;;;;3.70;77.40;;;;;;5027993;28;20753;-74
2022/04/04 01:14:41;;;;;;;;;;;3.60;77.60;;;;;;5027887;28;19921;-74
2022/04/04 01:17:07;;;;;;;;;;;3.60;77.80;;;;;;5026633;28;19917;-74
2022/04/04 01:19:33;;;;;;;;;;;3.60;77.40;;;;;;5023582;28;19913;-74
2022/04/04 01:21:59;;;;;;;;;;;3.60;77.70;;;;;;5026937;28;19925;-75
2022/04/04 01:24:25;;;;;;;;;;;3.60;77.80;;;;;;5028574;28;19920;-75
2022/04/04 01:26:51;;;;;;;;;;;3.60;78.10;;;;;;5027995;28;20281;-74
2022/04/04 01:29:17;;;;;;;;;;;3.60;76.80;;;;;;5025935;28;19917;-75
2022/04/04 01:31:43;;;;;;;;;;;3.60;77.00;;;;;;5028206;28;19913;-75
2022/04/04 01:34:08;;;;;;;;;;;3.60;77.10;;;;;;5021005;28;19964;-75
2022/04/04 01:36:34;;;;;;;;;;;3.50;77.80;;;;;;5028249;28;19921;-75
2022/04/04 01:38:59;;;;;;;;;;;3.50;77.90;;;;;;5025523;28;19914;-76
2022/04/04 01:41:25;;;;;;;;;;;3.50;77.70;;;;;;5027208;28;19913;-75
2022/04/04 01:43:51;;;;;;;;;;;3.60;78.10;;;;;;5028199;28;20011;-75
2022/04/04 01:46:27;;;;;;;;;;;3.60;77.50;;;;;;5026513;28;19921;-75
2022/04/04 01:48:53;;;;;;;;;;;3.50;78.10;;;;;;5024406;28;20864;-74
2022/04/04 01:51:19;;;;;;;;;;;3.60;77.70;;;;;;5027788;28;19929;-74
2022/04/04 01:53:45;;;;;;;;;;;3.60;78.10;;;;;;5028439;28;19913;-75
2022/04/04 01:56:11;;;;;;;;;;;3.60;78.10;;;;;;5028578;28;20604;-74
2022/04/04 01:58:37;;;;;;;;;;;3.50;78.00;;;;;;5023307;28;20000;-75
2022/04/04 02:01:08;;;;;;;;;;;3.60;77.80;;;;;;5025763;28;19913;-75
2022/04/04 02:03:33;;;;;;;;;;;3.50;78.00;;;;;;5026213;28;20278;-75
2022/04/04 02:06:00;;;;;;;;;;;3.50;78.50;;;;;;5025935;28;19913;-75
2022/04/04 02:08:26;;;;;;;;;;;3.50;78.30;;;;;;5027202;28;20376;-74
2022/04/04 02:10:51;;;;;;;;;;;3.50;78.00;;;;;;5023150;28;20031;-74
2022/04/04 02:13:17;;;;;;;;;;;3.50;78.30;;;;;;5027038;28;20023;-75
2022/04/04 02:15:42;;;;;;;;;;;3.40;78.60;;;;;;5027835;28;20277;-75
2022/04/04 02:18:08;;;;;;;;;;;3.40;78.50;;;;;;5024379;28;19995;-74
2022/04/04 02:20:33;;;;;;;;;;;3.30;78.90;;;;;;5026099;28;19955;-75
2022/04/04 02:23:00;;;;;;;;;;;3.30;79.20;;;;;;5023561;28;19913;-75
2022/04/04 02:25:26;;;;;;;;;;;3.40;78.90;;;;;;5026920;28;19913;-74
2022/04/04 02:27:51;;;;;;;;;;;3.40;78.60;;;;;;5025129;28;20582;-75
2022/04/04 02:30:17;;;;;;;;;;;3.40;78.70;;;;;;5026343;28;20392;-75
2022/04/04 02:32:42;;;;;;;;;;;3.40;78.70;;;;;;5025915;28;20340;-74
2022/04/04 02:35:08;;;;;;;;;;;3.40;78.50;;;;;;5025507;28;19982;-75
2022/04/04 02:37:34;;;;;;;;;;;3.30;78.60;;;;;;5026958;28;19933;-75
2022/04/04 02:40:00;;;;;;;;;;;3.30;78.90;;;;;;5023738;28;19909;-75
2022/04/04 02:42:25;;;;;;;;;;;3.30;78.60;;;;;;5025385;28;19913;-75
2022/04/04 02:44:51;;;;;;;;;;;3.30;78.70;;;;;;5027102;28;20391;-74
2022/04/04 02:47:16;;;;;;;;;;;3.30;78.90;;;;;;5020123;28;20366;-75
2022/04/04 02:49:42;;;;;;;;;;;3.40;78.70;;;;;;5023915;28;19921;-75
2022/04/04 02:52:07;;;;;;;;;;;3.30;78.80;;;;;;5028093;28;20068;-75
2022/04/04 02:54:33;;;;;;;;;;;3.40;78.90;;;;;;5026978;28;19993;-75
2022/04/04 02:56:58;;;;;;;;;;;3.40;78.60;;;;;;5023533;28;19913;-75
2022/04/04 02:59:24;;;;;;;;;;;3.50;78.60;;;;;;5025961;28;19920;-75
2022/04/04 03:01:49;;;;;;;;;;;3.50;78.30;;;;;;5026771;28;20360;-75
2022/04/04 03:04:15;;;;;;;;;;;3.50;78.40;;;;;;5026040;28;19969;-75
2022/04/04 03:06:41;;;;;;;;;;;3.50;78.40;;;;;;5024852;28;19917;-75
2022/04/04 03:09:06;;;;;;;;;;;3.50;78.30;;;;;;5024940;28;19913;-75
2022/04/04 03:11:32;;;;;;;;;;;3.50;78.60;;;;;;5025800;28;20377;-75
2022/04/04 03:13:58;;;;;;;;;;;3.50;78.40;;;;;;5031114;28;19917;-75
2022/04/04 03:16:23;;;;;;;;;;;3.50;78.30;;;;;;5031027;28;20300;-75
2022/04/04 03:18:48;;;;;;;;;;;3.50;78.00;;;;;;5026577;28;20412;-75
2022/04/04 03:21:14;;;;;;;;;;;3.50;78.50;;;;;;5027911;28;19952;-74
2022/04/04 03:23:40;;;;;;;;;;;3.60;78.20;;;;;;5029948;28;19913;-75
2022/04/04 03:26:06;;;;;;;;;;;3.60;77.80;;;;;;5029342;28;19909;-75
2022/04/04 03:28:31;;;;;;;;;;;3.60;77.40;;;;;;5029620;28;19988;-74
2022/04/04 03:30:57;;;;;;;;;;;3.60;77.20;;;;;;5028480;28;20338;-75
2022/04/04 03:33:24;;;;;;;;;;;3.60;77.40;;;;;;5027735;28;20007;-75
2022/04/04 03:35:49;;;;;;;;;;;3.60;77.60;;;;;;5025412;28;19913;-75
2022/04/04 03:38:15;;;;;;;;;;;3.60;77.40;;;;;;5029771;28;19913;-75
2022/04/04 03:40:41;;;;;;;;;;;3.60;77.60;;;;;;5027013;28;20004;-75
2022/04/04 03:43:07;;;;;;;;;;;3.60;77.30;;;;;;5028961;28;19939;-75
2022/04/04 03:45:33;;;;;;;;;;;3.60;77.60;;;;;;5030982;28;19916;-75
2022/04/04 03:47:58;;;;;;;;;;;3.60;77.00;;;;;;5029774;28;19917;-75
2022/04/04 03:50:25;;;;;;;;;;;3.60;77.10;;;;;;5027987;28;19987;-74
2022/04/04 03:52:52;;;;;;;;;;;3.60;77.20;;;;;;5027482;28;19917;-74
2022/04/04 03:55:18;;;;;;;;;;;3.70;76.80;;;;;;5029287;28;20404;-74
2022/04/04 03:57:44;;;;;;;;;;;3.60;77.20;;;;;;5029057;28;20288;-74
2022/04/04 04:00:10;;;;;;;;;;;3.60;76.70;;;;;;5027849;28;19917;-74
2022/04/04 04:02:37;;;;;;;;;;;3.60;76.70;;;;;;5030222;28;19939;-75
2022/04/04 04:05:03;;;;;;;;;;;3.60;76.70;;;;;;5027027;28;19921;-75
2022/04/04 04:07:29;;;;;;;;;;;3.60;76.80;;;;;;5025864;28;19917;-75
2022/04/04 04:09:56;;;;;;;;;;;3.70;76.30;;;;;;5026556;28;21461;-74
2022/04/04 04:12:21;;;;;;;;;;;3.70;76.10;;;;;;5029370;28;19952;-74
2022/04/04 04:14:47;;;;;;;;;;;3.70;76.00;;;;;;5023578;28;19917;-74
2022/04/04 04:17:15;;;;;;;;;;;3.70;75.40;;;;;;5025116;28;20023;-74
2022/04/04 04:22:25;;;;;;;;;;;3.70;75.60;;;;;;5030013;28;19983;-75
2022/04/04 04:24:51;;;;;;;;;;;3.60;75.50;;;;;;5028997;28;19921;-74
2022/04/04 04:27:16;;;;;;;;;;;3.70;75.60;;;;;;5027959;28;19913;-75
2022/04/04 04:29:42;;;;;;;;;;;3.70;75.30;;;;;;5029546;28;19913;-75
2022/04/04 04:32:12;;;;;;;;;;;3.80;74.60;;;;;;5027960;28;20312;-75
2022/04/04 04:34:38;;;;;;;;;;;3.80;74.60;;;;;;5028417;28;19967;-74
2022/04/04 04:37:04;;;;;;;;;;;3.80;74.50;;;;;;5028286;28;19948;-75
2022/04/04 04:39:30;;;;;;;;;;;3.90;74.30;;;;;;5028911;28;20358;-75
2022/04/04 04:41:55;;;;;;;;;;;3.90;73.70;;;;;;5027798;28;19913;-75
2022/04/04 04:44:21;;;;;;;;;;;3.80;73.70;;;;;;5030240;28;19917;-74
2022/04/04 04:46:48;;;;;;;;;;;3.80;73.80;;;;;;5029240;28;19948;-74
2022/04/04 04:49:14;;;;;;;;;;;3.80;73.90;;;;;;5034664;28;20064;-74
2022/04/04 04:51:41;;;;;;;;;;;3.80;73.80;;;;;;5022285;28;20400;-75
2022/04/04 04:54:07;;;;;;;;;;;3.90;73.40;;;;;;5028263;28;19917;-74
2022/04/04 04:56:33;;;;;;;;;;;3.80;73.90;;;;;;5026975;28;19910;-75
2022/04/04 04:58:58;;;;;;;;;;;3.80;72.90;;;;;;5025743;28;20309;-75
2022/04/04 05:01:24;;;;;;;;;;;3.80;73.50;;;;;;5028059;28;19924;-75
2022/04/04 05:03:50;;;;;;;;;;;3.80;73.20;;;;;;5027873;28;19963;-74
2022/04/04 05:06:15;;;;;;;;;;;3.80;73.70;;;;;;5028077;28;19928;-73
2022/04/04 05:08:41;;;;;;;;;;;3.80;73.70;;;;;;5029367;28;20412;-74
2022/04/04 05:11:07;;;;;;;;;;;3.80;73.10;;;;;;5023026;28;20496;-74
2022/04/04 05:13:32;;;;;;;;;;;3.90;72.70;;;;;;5025909;28;20289;-74
2022/04/04 05:15:58;;;;;;;;;;;3.90;72.80;;;;;;5028102;28;19917;-75
2022/04/04 05:18:24;;;;;;;;;;;3.80;72.60;;;;;;5027659;28;19913;-74
2022/04/04 05:20:50;;;;;;;;;;;3.80;72.90;;;;;;5025071;28;19940;-74
2022/04/04 05:23:15;;;;;;;;;;;3.80;73.50;;;;;;5025437;28;19914;-75
2022/04/04 05:25:40;;;;;;;;;;;3.90;72.70;;;;;;5029077;28;19925;-74
2022/04/04 05:28:07;;;;;;;;;;;3.80;72.40;;;;;;5027677;28;20008;-75
2022/04/04 05:30:34;;;;;;;;;;;3.80;72.50;;;;;;5029521;28;19932;-75
2022/04/04 05:32:59;;;;;;;;;;;3.70;72.70;;;;;;5026370;28;19940;-77
2022/04/04 05:35:25;;;;;;;;;;;3.70;72.80;;;;;;5024192;28;19917;-75
2022/04/04 05:37:54;;;;;;;;;;;3.70;73.10;;;;;;5025635;28;19917;-74
2022/04/04 05:40:21;;;;;;;;;;;3.80;72.90;;;;;;5027785;28;19920;-75
2022/04/04 05:42:46;;;;;;;;;;;3.80;73.00;;;;;;5027018;28;19963;-75
2022/04/04 05:45:12;;;;;;;;;;;3.80;72.70;;;;;;5025765;28;19949;-75
2022/04/04 05:47:37;;;;;;;;;;;3.80;72.50;;;;;;5020925;28;20003;-74
2022/04/04 05:50:03;;;;;;;;;;;3.90;72.60;;;;;;5023452;28;19921;-75
2022/04/04 05:52:29;;;;;;;;;;;3.90;72.50;;;;;;5025414;28;20511;-75
2022/04/04 05:54:55;;;;;;;;;;;4.00;72.00;;;;;;5023218;28;20064;-75
2022/04/04 05:57:23;;;;;;;;;;;4.00;72.20;;;;;;5026712;28;19921;-76
2022/04/04 05:59:49;;;;;;;;;;;4.10;71.50;;;;;;5022337;28;19979;-75
2022/04/04 06:02:14;;;;;;;;;;;4.10;72.00;;;;;;5032358;28;20234;-74
2022/04/04 06:04:40;;;;;;;;;;;4.10;71.70;;;;;;5036831;28;19917;-74
2022/04/04 06:07:05;;;;;;;;;;;4.30;70.90;;;;;;5033756;28;19928;-75
2022/04/04 06:09:31;;;;;;;;;;;4.20;70.90;;;;;;5029035;28;19999;-75
2022/04/04 06:11:56;;;;;;;;;;;4.30;70.90;;;;;;5028425;28;19913;-75
2022/04/04 06:14:21;;;;;;;;;;;4.30;70.60;;;;;;5029891;28;19935;-74
2022/04/04 06:16:47;;;;;;;;;;;4.30;70.70;;;;;;5028456;28;19967;-75
2022/04/04 06:19:13;;;;;;;;;;;4.40;70.90;;;;;;5027777;28;19959;-75
2022/04/04 06:21:39;;;;;;;;;;;4.50;70.40;;;;;;5028973;28;19917;-76
2022/04/04 06:24:05;;;;;;;;;;;4.50;70.70;;;;;;5029270;28;20019;-75
2022/04/04 06:26:30;;;;;;;;;;;4.50;70.50;;;;;;5030129;28;20000;-76
2022/04/04 06:28:56;;;;;;;;;;;4.60;70.20;;;;;;5017475;28;19914;-76
2022/04/04 06:31:22;;;;;;;;;;;4.60;69.80;;;;;;5037359;28;19987;-75
2022/04/04 06:33:48;;;;;;;;;;;4.80;69.60;;;;;;5027639;28;19925;-75
2022/04/04 06:36:13;;;;;;;;;;;4.70;69.70;;;;;;5029912;28;20254;-75
2022/04/04 06:38:39;;;;;;;;;;;4.80;69.70;;;;;;5029328;28;19959;-75
2022/04/04 06:41:05;;;;;;;;;;;4.90;69.30;;;;;;5030248;28;20663;-75
2022/04/04 06:43:30;;;;;;;;;;;4.90;68.90;;;;;;5028136;28;19925;-75
2022/04/04 06:45:56;;;;;;;;;;;5.00;68.90;;;;;;5029612;28;19963;-75
2022/04/04 06:48:23;;;;;;;;;;;5.00;68.70;;;;;;5029350;28;19916;-75
2022/04/04 06:50:49;;;;;;;;;;;5.00;68.60;;;;;;5027867;28;19928;-75
2022/04/04 06:53:14;;;;;;;;;;;5.10;68.30;;;;;;5034556;28;19909;-75
2022/04/04 06:55:40;;;;;;;;;;;5.10;68.20;;;;;;5023858;28;19916;-75
2022/04/04 06:58:06;;;;;;;;;;;5.10;67.90;;;;;;5030656;28;19957;-76
2022/04/04 07:00:31;;;;;;;;;;;5.20;68.00;;;;;;5032218;28;19913;-75
2022/04/04 07:02:58;;;;;;;;;;;5.30;67.50;;;;;;5032229;28;20374;-75
2022/04/04 07:05:24;;;;;;;;;;;5.30;67.60;;;;;;5064307;22;19940;-86
2022/04/04 07:07:49;;;;;;;;;;;5.40;67.00;;;;;;5053844;28;19917;-84
2022/04/04 07:10:14;;;;;;;;;;;5.40;67.90;;;;;;5054019;28;19924;-85
2022/04/04 07:12:41;;;;;;;;;;;5.30;67.70;;;;;;5050493;28;19924;-84
2022/04/04 07:15:07;;;;;;;;;;;5.50;67.70;;;;;;5051313;28;20272;-84
2022/04/04 07:17:33;;;;;;;;;;;5.60;67.30;;;;;;5054821;28;19978;-84
2022/04/04 07:19:58;;;;;;;;;;;5.70;66.60;;;;;;5046511;28;19920;-83
2022/04/04 07:22:25;;;;;;;;;;;5.80;66.80;;;;;;5056107;28;19909;-83
2022/04/04 07:24:50;;;;;;;;;;;6.00;66.20;;;;;;5051530;28;19919;-83
2022/04/04 07:27:16;;;;;;;;;;;6.10;66.50;;;;;;5054217;28;20448;-81
2022/04/04 07:29:42;;;;;;;;;;;6.10;66.60;;;;;;5066120;28;19917;-85
2022/04/04 07:32:09;;;;;;;;;;;6.20;66.10;;;;;;5062716;28;19909;-80
2022/04/04 07:34:35;;;;;;;;;;;6.20;66.30;;;;;;5077905;28;20026;-79
2022/04/04 07:37:01;;;;;;;;;;;6.10;66.70;;;;;;5077078;28;19912;-82
2022/04/04 07:39:26;;;;;;;;;;;6.10;67.10;;;;;;5054177;28;20008;-79
2022/04/04 07:41:52;;;;;;;;;;;6.20;67.40;;;;;;5051826;28;19913;-80
2022/04/04 07:44:18;;;;;;;;;;;6.30;66.90;;;;;;5053586;28;19920;-81
2022/04/04 07:46:43;;;;;;;;;;;6.40;66.60;;;;;;5051492;28;19909;-83
2022/04/04 07:49:08;;;;;;;;;;;6.50;66.80;;;;;;5049301;28;19952;-83
2022/04/04 07:51:34;;;;;;;;;;;6.60;65.70;;;;;;5051759;28;20382;-83
2022/04/04 07:53:59;;;;;;;;;;;6.60;65.60;;;;;;5052474;28;19912;-81
2022/04/04 07:56:25;;;;;;;;;;;6.70;65.60;;;;;;5051405;28;20000;-83
2022/04/04 07:58:50;;;;;;;;;;;6.80;65.30;;;;;;5046854;28;19917;-84
2022/04/04 08:01:16;;;;;;;;;;;6.90;64.60;;;;;;5051731;28;19916;-84
2022/04/04 08:03:41;;;;;;;;;;;7.00;64.50;;;;;;5046910;28;20371;-83
2022/04/04 08:06:06;;;;;;;;;;;7.00;64.30;;;;;;5067814;28;19937;-84
2022/04/04 08:08:32;;;;;;;;;;;7.00;64.10;;;;;;5050888;28;19913;-82
2022/04/04 08:10:58;;;;;;;;;;;7.00;64.90;;;;;;5048960;28;20023;-83
2022/04/04 08:13:24;;;;;;;;;;;7.10;63.90;;;;;;5051821;28;20007;-83
2022/04/04 08:15:50;;;;;;;;;;;7.10;63.60;;;;;;5053228;28;19987;-84
2022/04/04 08:18:15;;;;;;;;;;;7.00;63.40;;;;;;5051703;28;19959;-82
2022/04/04 08:20:41;;;;;;;;;;;7.00;64.30;;;;;;5050713;28;19923;-84
2022/04/04 08:23:08;;;;;;;;;;;7.00;64.10;;;;;;5072161;28;19917;-81
2022/04/04 08:25:33;;;;;;;;;;;7.00;64.40;;;;;;5072101;28;19989;-82
2022/04/04 08:27:58;;;;;;;;;;;7.00;64.00;;;;;;5061508;28;19916;-83
2022/04/04 08:30:24;;;;;;;;;;;7.10;63.80;;;;;;5085219;28;20072;-83
2022/04/04 08:32:49;;;;;;;;;;;7.10;63.40;;;;;;5061328;28;19916;-84
2022/04/04 08:35:15;;;;;;;;;;;7.20;63.60;;;;;;5052023;28;19935;-83
2022/04/04 08:37:41;;;;;;;;;;;7.30;63.10;;;;;;5053275;28;19927;-81
2022/04/04 08:40:09;;;;;;;;;;;7.40;62.70;;;;;;5051540;28;19956;-81
2022/04/04 08:42:35;;;;;;;;;;;7.50;63.20;;;;;;5057132;28;20003;-82
2022/04/04 08:45:01;;;;;;;;;;;7.60;61.80;;;;;;5065487;28;19935;-80
2022/04/04 08:47:29;;;;;;;;;;;7.60;61.50;;;;;;5052356;28;19999;-82
2022/04/04 08:49:55;;;;;;;;;;;7.70;60.90;;;;;;5051583;28;20450;-85
2022/04/04 08:52:21;;;;;;;;;;;7.80;61.10;;;;;;5050863;28;19916;-83
2022/04/04 08:54:47;;;;;;;;;;;7.70;60.20;;;;;;5049224;28;19917;-83
2022/04/04 08:57:12;;;;;;;;;;;7.60;60.80;;;;;;5042017;28;20352;-83
2022/04/04 08:59:41;;;;;;;;;;;7.60;61.10;;;;;;5048965;28;20360;-83
2022/04/04 09:02:07;;;;;;;;;;;7.60;61.80;;;;;;5049941;28;19928;-83
2022/04/04 09:04:33;;;;;;;;;;;7.50;62.20;;;;;;5051206;28;20299;-84
2022/04/04 09:07:04;;;;;;;;;;;7.40;63.50;;;;;;5050050;28;20027;-85
2022/04/04 09:09:40;;;;;;;;;;;7.30;63.40;;;;;;5043523;28;20467;-84
2022/04/04 09:12:09;;;;;;;;;;;7.40;63.40;;;;;;5050110;28;19948;-85
2022/04/04 09:14:37;;;;;;;;;;;7.50;63.30;;;;;;5045414;28;19919;-83
2022/04/04 09:17:05;;;;;;;;;;;7.50;63.70;;;;;;5048693;28;20256;-82
2022/04/04 09:19:31;;;;;;;;;;;7.50;64.40;;;;;;5048201;28;19909;-85
2022/04/04 09:21:56;;;;;;;;;;;7.40;64.00;;;;;;5042982;28;20688;-84
2022/04/04 09:24:41;;;;;;;;;;;7.50;64.30;;;;;;5052224;28;19909;-84
2022/04/04 09:27:12;;;;;;;;;;;7.40;64.20;;;;;;5047870;28;20327;-85
2022/04/04 09:29:40;;;;;;;;;;;7.30;64.50;;;;;;5041149;28;19917;-83
2022/04/04 09:32:05;;;;;;;;;;;7.30;65.40;;;;;;5041560;28;20001;-84
2022/04/04 09:34:49;;;;;;;;;;;7.30;66.00;;;;;;5051057;28;19967;-82
2022/04/04 09:37:15;;;;;;;;;;;7.30;64.90;;;;;;5049999;28;20409;-84
2022/04/04 09:39:41;;;;;;;;;;;7.30;65.10;;;;;;5038781;28;20318;-82
2022/04/04 09:42:14;;;;;;;;;;;7.40;66.80;;;;;;5054805;28;19920;-82
2022/04/04 09:44:39;;;;;;;;;;;7.40;66.10;;;;;;5043429;28;19963;-83
2022/04/04 09:47:05;;;;;;;;;;;7.40;66.40;;;;;;5049196;28;20380;-82
2022/04/04 09:49:37;;;;;;;;;;;7.40;66.10;;;;;;5050473;28;20001;-81
2022/04/04 09:52:03;;;;;;;;;;;7.20;66.10;;;;;;5041484;28;19921;-81
2022/04/04 09:54:29;;;;;;;;;;;7.10;68.40;;;;;;5045900;28;20644;-81
2022/04/04 09:56:59;;;;;;;;;;;7.10;68.20;;;;;;5045458;28;19917;-79
2022/04/04 09:59:25;;;;;;;;;;;7.00;69.20;;;;;;5055991;28;19924;-81
2022/04/04 10:01:50;;;;;;;;;;;7.10;69.60;;;;;;5049312;28;19925;-84
2022/04/04 10:04:16;;;;;;;;;;;7.20;69.30;;;;;;5048304;28;19959;-83
2022/04/04 10:06:47;;;;;;;;;;;7.30;70.40;;;;;;5050133;28;19923;-87
2022/04/04 10:09:12;;;;;;;;;;;7.50;70.80;;;;;;5045250;28;19913;-84
2022/04/04 10:11:38;;;;;;;;;;;7.30;70.00;;;;;;5044426;28;19986;-85
2022/04/04 10:14:06;;;;;;;;;;;7.20;71.10;;;;;;5045521;28;20515;-83
2022/04/04 10:16:32;;;;;;;;;;;7.20;71.40;;;;;;5052081;28;19923;-85
2022/04/04 10:18:59;;;;;;;;;;;7.00;72.60;;;;;;5041073;28;19925;-85
2022/04/04 10:21:25;;;;;;;;;;;7.00;72.70;;;;;;5050908;28;20465;-84
2022/04/04 10:23:52;;;;;;;;;;;7.00;73.30;;;;;;5045119;28;19919;-83
2022/04/04 10:26:19;;;;;;;;;;;7.00;73.20;;;;;;5047214;28;19920;-84
2022/04/04 10:28:47;;;;;;;;;;;7.10;73.70;;;;;;5046518;28;20008;-84
2022/04/04 10:31:17;;;;;;;;;;;7.20;72.80;;;;;;5046979;28;19920;-86
2022/04/04 10:33:44;;;;;;;;;;;7.20;72.70;;;;;;5044653;28;19916;-85
2022/04/04 10:36:11;;;;;;;;;;;7.20;72.70;;;;;;5047244;28;19913;-86
2022/04/04 10:38:47;;;;;;;;;;;7.30;71.40;;;;;;5050403;28;20312;-86
2022/04/04 10:41:33;;;;;;;;;;;7.50;72.70;;;;;;5051656;28;19923;-86
2022/04/04 10:44:10;;;;;;;;;;;7.60;72.20;;;;;;5046731;28;19913;-86
2022/04/04 10:46:36;;;;;;;;;;;7.60;73.10;;;;;;5068474;28;20371;-85
2022/04/04 10:49:03;;;;;;;;;;;7.60;73.70;;;;;;5046410;28;19920;-88
2022/04/04 10:51:28;;;;;;;;;;;7.40;73.20;;;;;;5051112;28;19935;-82
2022/04/04 10:54:01;;;;;;;;;;;7.20;74.40;;;;;;5059801;28;19913;-82
2022/04/04 10:56:27;;;;;;;;;;;7.00;76.00;;;;;;5051423;28;19992;-81
2022/04/04 10:59:13;;;;;;;;;;;6.70;77.30;;;;;;5070407;28;19915;-80
2022/04/04 11:01:39;;;;;;;;;;;6.70;78.00;;;;;;5068775;28;19984;-80
2022/04/04 11:04:04;;;;;;;;;;;6.60;79.40;;;;;;5040742;28;20412;-80
2022/04/04 11:09:30;;;;;;;;;;;6.50;79.20;;;;;;5044660;28;19975;-80
2022/04/04 11:11:58;;;;;;;;;;;6.30;80.40;;;;;;5046133;28;19916;-80
2022/04/04 11:14:26;;;;;;;;;;;6.10;80.60;;;;;;5048822;28;19921;-80
2022/04/04 11:17:54;;;;;;;;;;;6.10;82.10;;;;;;5048155;28;19920;-81
2022/04/04 11:20:03;;;;;;;;;;;6.10;82.90;;;;;;5035672;28;20617;-79
2022/04/04 11:22:29;;;;;;;;;;;6.20;83.20;;;;;;5048994;28;19927;-83
2022/04/04 11:25:03;;;;;;;;;;;6.30;83.40;;;;;;5045242;28;19955;-84
2022/04/04 11:27:29;;;;;;;;;;;6.30;83.40;;;;;;5043262;28;19917;-83
2022/04/04 11:29:55;;;;;;;;;;;6.30;83.10;;;;;;5047353;28;20027;-83
2022/04/04 11:32:42;;;;;;;;;;;6.20;83.50;;;;;;5045265;28;19980;-82
2022/04/04 11:35:14;;;;;;;;;;;6.10;82.90;;;;;;5058332;28;19930;-82
2022/04/04 11:37:43;;;;;;;;;;;6.10;83.60;;;;;;5069408;28;19913;-81
2022/04/04 11:40:13;;;;;;;;;;;6.10;84.10;;;;;;5081355;28;19929;-82
2022/04/04 11:42:40;;;;;;;;;;;6.10;84.00;;;;;;5051097;28;19919;-83
2022/04/04 11:45:06;;;;;;;;;;;6.10;84.20;;;;;;5053359;28;20406;-81
2022/04/04 11:47:32;;;;;;;;;;;6.10;84.10;;;;;;5048306;28;20008;-83
2022/04/04 11:50:01;;;;;;;;;;;6.10;83.60;;;;;;5051902;28;19925;-83
2022/04/04 11:52:27;;;;;;;;;;;6.10;83.80;;;;;;5049585;28;19917;-80
2022/04/04 11:54:53;;;;;;;;;;;6.10;83.80;;;;;;5051724;28;20394;-82
2022/04/04 11:57:19;;;;;;;;;;;6.10;84.50;;;;;;5049909;28;19921;-82
2022/04/04 11:59:46;;;;;;;;;;;6.30;84.30;;;;;;5051607;28;20296;-82
2022/04/04 12:02:13;;;;;;;;;;;6.30;84.10;;;;;;5049458;28;19948;-80
2022/04/04 12:04:39;;;;;;;;;;;6.30;84.40;;;;;;5050148;28;19923;-82
2022/04/04 12:07:05;;;;;;;;;;;6.10;83.80;;;;;;5049708;28;19924;-81
2022/04/04 12:09:32;;;;;;;;;;;6.00;84.70;;;;;;5045619;28;19913;-84
2022/04/04 12:12:01;;;;;;;;;;;5.90;84.30;;;;;;5050682;28;19947;-80
2022/04/04 12:14:40;;;;;;;;;;;5.90;84.50;;;;;;5067482;28;19962;-81
2022/04/04 12:17:07;;;;;;;;;;;5.80;84.50;;;;;;5049530;28;20008;-81
2022/04/04 12:19:42;;;;;;;;;;;5.80;85.00;;;;;;5043570;28;19913;-81
2022/04/04 12:24:55;;;;;;;;;;;5.70;85.10;;;;;;5066508;28;20352;-82
2022/04/04 12:24:56;;;;;;;;;;;5.80;85.20;;;;;;5047119;28;19998;-81
2022/04/04 12:27:22;;;;;;;;;;;5.70;85.60;;;;;;5045494;28;20004;-82
2022/04/04 12:29:47;;;;;;;;;;;5.70;85.30;;;;;;5047536;28;20035;-81
2022/04/04 12:32:17;;;;;;;;;;;5.70;85.90;;;;;;5057728;28;19913;-79
2022/04/04 12:34:59;;;;;;;;;;;5.70;85.50;;;;;;5055556;28;20024;-82
2022/04/04 12:37:35;;;;;;;;;;;5.60;85.70;;;;;;5053715;28;19974;-82
2022/04/04 12:40:17;;;;;;;;;;;5.60;85.30;;;;;;5052092;28;20676;-80
2022/04/04 12:42:43;;;;;;;;;;;5.60;85.40;;;;;;5052039;28;19912;-82
2022/04/04 12:45:10;;;;;;;;;;;5.60;85.50;;;;;;5069539;28;19912;-82
2022/04/04 12:47:51;;;;;;;;;;;5.60;85.50;;;;;;5051557;28;19922;-82
2022/04/04 12:50:21;;;;;;;;;;;5.60;85.90;;;;;;5066298;28;19979;-80
2022/04/04 12:53:00;;;;;;;;;;;5.60;85.40;;;;;;5051550;28;19917;-81
2022/04/04 12:55:26;;;;;;;;;;;5.60;85.50;;;;;;5059225;28;20178;-81
2022/04/04 12:57:52;;;;;;;;;;;5.50;85.50;;;;;;5024223;28;19915;-82
2022/04/04 13:00:35;;;;;;;;;;;5.50;85.60;;;;;;5023731;28;20229;-80
2022/04/04 13:03:22;;;;;;;;;;;5.50;85.80;;;;;;4997899;28;20004;-81
2022/04/04 13:05:52;;;;;;;;;;;5.50;86.00;;;;;;5018722;28;19921;-81
2022/04/04 13:08:19;;;;;;;;;;;5.50;85.90;;;;;;5001614;23;20158;-77
2022/04/04 13:11:08;;;;;;;;;;;5.50;86.30;;;;;;4983665;28;19917;-78
2022/04/04 13:13:34;;;;;;;;;;;5.50;86.00;;;;;;4993053;28;19937;-77
2022/04/04 13:16:00;;;;;;;;;;;5.40;86.10;;;;;;5003879;28;20105;-77
2022/04/04 13:18:25;;;;;;;;;;;5.40;86.10;;;;;;4977702;28;20389;-77
2022/04/04 13:20:51;;;;;;;;;;;5.40;86.40;;;;;;4984417;28;19935;-78
2022/04/04 13:23:18;;;;;;;;;;;5.40;86.50;;;;;;4981775;28;20419;-78
2022/04/04 13:25:45;;;;;;;;;;;5.50;86.70;;;;;;4982235;28;20170;-77
2022/04/04 13:28:12;;;;;;;;;;;5.40;86.30;;;;;;4968728;28;19932;-77
2022/04/04 13:30:39;;;;;;;;;;;5.50;86.20;;;;;;4979541;28;19921;-78
2022/04/04 13:33:05;;;;;;;;;;;5.40;86.30;;;;;;4980561;28;20074;-78
2022/04/04 13:35:31;;;;;;;;;;;5.60;86.50;;;;;;4977234;28;20850;-77
2022/04/04 13:37:57;;;;;;;;;;;5.50;86.40;;;;;;4981575;28;19913;-78
2022/04/04 13:40:22;;;;;;;;;;;5.60;86.30;;;;;;4993066;28;20068;-79
2022/04/04 13:42:48;;;;;;;;;;;5.50;86.30;;;;;;4975534;28;20005;-80
2022/04/04 13:45:13;;;;;;;;;;;5.50;87.30;;;;;;5011735;28;19913;-80
2022/04/04 13:47:39;;;;;;;;;;;5.50;87.20;;;;;;4999972;28;19928;-80
2022/04/04 13:50:05;;;;;;;;;;;5.50;87.20;;;;;;4990280;28;19932;-80
2022/04/04 13:52:31;;;;;;;;;;;5.40;86.80;;;;;;4968968;28;20121;-80
2022/04/04 13:54:57;;;;;;;;;;;5.40;87.20;;;;;;4994164;28;20687;-79
2022/04/04 13:57:23;;;;;;;;;;;5.50;87.60;;;;;;4969288;28;20015;-79
2022/04/04 13:59:48;;;;;;;;;;;5.40;87.40;;;;;;4974407;28;20237;-78
2022/04/04 14:02:14;;;;;;;;;;;5.40;87.80;;;;;;5001791;28;19932;-79
2022/04/04 14:04:39;;;;;;;;;;;5.30;88.00;;;;;;5028348;28;19940;-79
2022/04/04 14:07:05;;;;;;;;;;;5.30;87.60;;;;;;5031741;28;19921;-79
2022/04/04 14:09:30;;;;;;;;;;;5.30;88.00;;;;;;5029851;28;20005;-78
2022/04/04 14:11:56;;;;;;;;;;;5.40;88.20;;;;;;5030783;28;19917;-79
2022/04/04 14:14:22;;;;;;;;;;;5.30;88.20;;;;;;5037681;28;19921;-78
2022/04/04 14:16:49;;;;;;;;;;;5.30;88.20;;;;;;5032662;28;19942;-79
2022/04/04 14:19:15;;;;;;;;;;;5.30;88.50;;;;;;5042237;28;19917;-82
2022/04/04 14:21:41;;;;;;;;;;;5.30;88.40;;;;;;5039227;28;19944;-82
2022/04/04 14:24:06;;;;;;;;;;;5.30;88.80;;;;;;5030685;28;19917;-77
2022/04/04 14:26:32;;;;;;;;;;;5.30;88.40;;;;;;5027254;28;19913;-79
2022/04/04 14:28:58;;;;;;;;;;;5.30;88.80;;;;;;5029942;28;19913;-80
2022/04/04 14:31:27;;;;;;;;;;;5.30;88.30;;;;;;5030838;28;19940;-80
2022/04/04 14:33:56;;;;;;;;;;;5.20;88.60;;;;;;5029501;28;19959;-78
2022/04/04 14:36:22;;;;;;;;;;;5.30;88.80;;;;;;5031915;28;19951;-79